sensor_id;sensor_type;location;lat;lon;timestamp;temperature;humidity
4366;DHT22;2196;47.422;9.656;2023-04-24T00:01:15;10.30;99.90
4366;DHT22;2196;47.422;9.656;2023-04-24T00:03:44;10.30;99.90
4366;DHT22;2196;47.422;9.656;2023-04-24T00:06:10;10.20;99.90
4366;DHT22;2196;47.422;9.656;2023-04-24T00:08:38;10.20;99.90
4366;DHT22;2196;47.422;9.656;2023-04-24T00:11:05;10.30;99.90
4366;DHT22;2196;47.422;9.656;2023-04-24T00:13:32;10.30;99.90
4366;DHT22;2196;47.422;9.656;2023-04-24T00:15:59;10.30;99.90
4366;DHT22;2196;47.422;9.656;2023-04-24T00:18:26;10.20;99.90
4366;DHT22;2196;47.422;9.656;2023-04-24T00:20:54;10.30;99.90
4366;DHT22;2196;47.422;9.656;2023-04-24T00:23:21;10.30;99.90
4366;DHT22;2196;47.422;9.656;2023-04-24T00:25:48;10.30;99.90
4366;DHT22;2196;47.422;9.656;2023-04-24T00:28:15;10.30;99.90
4366;DHT22;2196;47.422;9.656;2023-04-24T00:30:42;10.30;99.90
4366;DHT22;2196;47.422;9.656;2023-04-24T00:33:09;10.20;99.90
4366;DHT22;2196;47.422;9.656;2023-04-24T00:35:37;10.30;99.90
4366;DHT22;2196;47.422;9.656;2023-04-24T00:38:06;10.20;99.90
4366;DHT22;2196;47.422;9.656;2023-04-24T00:40:33;10.20;99.90
4366;DHT22;2196;47.422;9.656;2023-04-24T00:43:00;10.30;99.90
4366;DHT22;2196;47.422;9.656;2023-04-24T00:45:28;10.30;99.90
4366;DHT22;2196;47.422;9.656;2023-04-24T00:47:57;10.30;99.90
4366;DHT22;2196;47.422;9.656;2023-04-24T00:50:24;10.20;99.90
4366;DHT22;2196;47.422;9.656;2023-04-24T00:52:52;10.10;99.90
4366;DHT22;2196;47.422;9.656;2023-04-24T00:55:20;10.10;99.90
4366;DHT22;2196;47.422;9.656;2023-04-24T00:57:48;10.10;99.90
4366;DHT22;2196;47.422;9.656;2023-04-24T01:00:16;10.00;99.90
4366;DHT22;2196;47.422;9.656;2023-04-24T01:02:44;10.00;99.90
4366;DHT22;2196;47.422;9.656;2023-04-24T01:05:13;10.00;99.90
4366;DHT22;2196;47.422;9.656;2023-04-24T01:07:41;10.00;99.90
4366;DHT22;2196;47.422;9.656;2023-04-24T01:10:11;9.90;99.90
4366;DHT22;2196;47.422;9.656;2023-04-24T01:12:40;9.90;99.90
4366;DHT22;2196;47.422;9.656;2023-04-24T01:15:09;9.80;99.90
4366;DHT22;2196;47.422;9.656;2023-04-24T01:17:36;9.80;99.90
4366;DHT22;2196;47.422;9.656;2023-04-24T01:20:04;9.90;99.90
4366;DHT22;2196;47.422;9.656;2023-04-24T01:22:34;9.90;99.90
4366;DHT22;2196;47.422;9.656;2023-04-24T01:25:02;9.80;99.90
4366;DHT22;2196;47.422;9.656;2023-04-24T01:27:29;9.70;99.90
4366;DHT22;2196;47.422;9.656;2023-04-24T01:29:56;9.60;99.90
4366;DHT22;2196;47.422;9.656;2023-04-24T01:32:24;9.60;99.90
4366;DHT22;2196;47.422;9.656;2023-04-24T01:34:51;9.60;99.90
4366;DHT22;2196;47.422;9.656;2023-04-24T01:37:21;9.60;99.90
4366;DHT22;2196;47.422;9.656;2023-04-24T01:39:50;9.60;99.90
4366;DHT22;2196;47.422;9.656;2023-04-24T01:42:20;9.60;99.90
4366;DHT22;2196;47.422;9.656;2023-04-24T01:44:48;9.60;99.90
4366;DHT22;2196;47.422;9.656;2023-04-24T01:47:15;9.60;99.90
4366;DHT22;2196;47.422;9.656;2023-04-24T01:49:42;9.60;99.90
4366;DHT22;2196;47.422;9.656;2023-04-24T01:52:09;9.60;99.90
4366;DHT22;2196;47.422;9.656;2023-04-24T01:54:36;9.60;99.90
4366;DHT22;2196;47.422;9.656;2023-04-24T01:57:05;9.50;99.90
4366;DHT22;2196;47.422;9.656;2023-04-24T01:59:33;9.50;99.90
4366;DHT22;2196;47.422;9.656;2023-04-24T02:02:02;9.50;99.90
4366;DHT22;2196;47.422;9.656;2023-04-24T02:04:29;9.50;99.90
4366;DHT22;2196;47.422;9.656;2023-04-24T02:06:56;9.60;99.90
4366;DHT22;2196;47.422;9.656;2023-04-24T02:09:23;9.60;99.90
4366;DHT22;2196;47.422;9.656;2023-04-24T02:11:50;9.60;99.90
4366;DHT22;2196;47.422;9.656;2023-04-24T02:14:19;9.60;99.90
4366;DHT22;2196;47.422;9.656;2023-04-24T02:16:45;9.60;99.90
4366;DHT22;2196;47.422;9.656;2023-04-24T02:19:12;9.50;99.90
4366;DHT22;2196;47.422;9.656;2023-04-24T02:21:39;9.50;99.90
4366;DHT22;2196;47.422;9.656;2023-04-24T02:24:06;9.60;99.90
4366;DHT22;2196;47.422;9.656;2023-04-24T02:26:33;9.50;99.90
4366;DHT22;2196;47.422;9.656;2023-04-24T02:29:00;9.60;99.90
4366;DHT22;2196;47.422;9.656;2023-04-24T02:31:29;9.60;99.90
4366;DHT22;2196;47.422;9.656;2023-04-24T02:33:56;9.50;99.90
4366;DHT22;2196;47.422;9.656;2023-04-24T02:36:23;9.50;99.90
4366;DHT22;2196;47.422;9.656;2023-04-24T02:38:50;9.50;99.90
4366;DHT22;2196;47.422;9.656;2023-04-24T02:41:16;9.40;99.90
4366;DHT22;2196;47.422;9.656;2023-04-24T02:43:43;9.40;99.90
4366;DHT22;2196;47.422;9.656;2023-04-24T02:46:10;9.30;99.90
4366;DHT22;2196;47.422;9.656;2023-04-24T02:48:39;9.30;99.90
4366;DHT22;2196;47.422;9.656;2023-04-24T02:51:06;9.30;99.90
4366;DHT22;2196;47.422;9.656;2023-04-24T02:53:33;9.30;99.90
4366;DHT22;2196;47.422;9.656;2023-04-24T02:56:00;9.30;99.90
4366;DHT22;2196;47.422;9.656;2023-04-24T02:58:27;9.40;99.90
4366;DHT22;2196;47.422;9.656;2023-04-24T03:00:54;9.40;99.90
4366;DHT22;2196;47.422;9.656;2023-04-24T03:03:21;9.40;99.90
4366;DHT22;2196;47.422;9.656;2023-04-24T03:05:50;9.40;99.90
4366;DHT22;2196;47.422;9.656;2023-04-24T03:08:17;9.40;99.90
4366;DHT22;2196;47.422;9.656;2023-04-24T03:10:44;9.40;99.90
4366;DHT22;2196;47.422;9.656;2023-04-24T03:13:11;9.30;99.90
4366;DHT22;2196;47.422;9.656;2023-04-24T03:15:38;9.30;99.90
4366;DHT22;2196;47.422;9.656;2023-04-24T03:18:05;9.20;99.90
4366;DHT22;2196;47.422;9.656;2023-04-24T03:20:32;9.20;99.90
4366;DHT22;2196;47.422;9.656;2023-04-24T03:23:00;9.10;99.90
4366;DHT22;2196;47.422;9.656;2023-04-24T03:25:27;9.10;99.90
4366;DHT22;2196;47.422;9.656;2023-04-24T03:27:54;9.10;99.90
4366;DHT22;2196;47.422;9.656;2023-04-24T03:30:21;9.10;99.90
4366;DHT22;2196;47.422;9.656;2023-04-24T03:32:48;9.20;99.90
4366;DHT22;2196;47.422;9.656;2023-04-24T03:35:15;9.20;99.90
4366;DHT22;2196;47.422;9.656;2023-04-24T03:37:42;9.20;99.90
4366;DHT22;2196;47.422;9.656;2023-04-24T03:40:11;9.20;99.90
4366;DHT22;2196;47.422;9.656;2023-04-24T03:42:38;9.30;99.90
4366;DHT22;2196;47.422;9.656;2023-04-24T03:45:06;9.30;99.90
4366;DHT22;2196;47.422;9.656;2023-04-24T03:47:33;9.20;99.90
4366;DHT22;2196;47.422;9.656;2023-04-24T03:50:00;9.20;99.90
4366;DHT22;2196;47.422;9.656;2023-04-24T03:52:27;9.20;99.90
4366;DHT22;2196;47.422;9.656;2023-04-24T03:54:54;9.20;99.90
4366;DHT22;2196;47.422;9.656;2023-04-24T03:57:25;9.20;99.90
4366;DHT22;2196;47.422;9.656;2023-04-24T03:59:52;9.20;99.90
4366;DHT22;2196;47.422;9.656;2023-04-24T04:02:21;9.20;99.90
4366;DHT22;2196;47.422;9.656;2023-04-24T04:04:48;9.20;99.90
4366;DHT22;2196;47.422;9.656;2023-04-24T04:07:15;9.20;99.90
4366;DHT22;2196;47.422;9.656;2023-04-24T04:09:42;9.20;99.90
4366;DHT22;2196;47.422;9.656;2023-04-24T04:12:09;9.20;99.90
4366;DHT22;2196;47.422;9.656;2023-04-24T04:14:37;9.30;99.90
4366;DHT22;2196;47.422;9.656;2023-04-24T04:17:04;9.30;99.90
4366;DHT22;2196;47.422;9.656;2023-04-24T04:19:31;9.30;99.90
4366;DHT22;2196;47.422;9.656;2023-04-24T04:21:58;9.20;99.90
4366;DHT22;2196;47.422;9.656;2023-04-24T04:24:25;9.20;99.90
4366;DHT22;2196;47.422;9.656;2023-04-24T04:26:52;9.20;99.90
4366;DHT22;2196;47.422;9.656;2023-04-24T04:29:22;9.30;99.90
4366;DHT22;2196;47.422;9.656;2023-04-24T04:31:50;9.30;99.90
4366;DHT22;2196;47.422;9.656;2023-04-24T04:34:17;9.40;99.90
4366;DHT22;2196;47.422;9.656;2023-04-24T04:36:45;9.30;99.90
4366;DHT22;2196;47.422;9.656;2023-04-24T04:39:12;9.30;99.90
4366;DHT22;2196;47.422;9.656;2023-04-24T04:41:40;9.30;99.90
4366;DHT22;2196;47.422;9.656;2023-04-24T04:44:07;9.30;99.90
4366;DHT22;2196;47.422;9.656;2023-04-24T04:46:35;9.30;99.90
4366;DHT22;2196;47.422;9.656;2023-04-24T04:49:05;9.30;99.90
4366;DHT22;2196;47.422;9.656;2023-04-24T04:51:34;9.30;99.90
4366;DHT22;2196;47.422;9.656;2023-04-24T04:54:00;9.30;99.90
4366;DHT22;2196;47.422;9.656;2023-04-24T04:56:27;9.30;99.90
4366;DHT22;2196;47.422;9.656;2023-04-24T04:58:54;9.30;99.90
4366;DHT22;2196;47.422;9.656;2023-04-24T05:01:21;9.30;99.90
4366;DHT22;2196;47.422;9.656;2023-04-24T05:03:49;9.30;99.90
4366;DHT22;2196;47.422;9.656;2023-04-24T05:06:17;9.30;99.90
4366;DHT22;2196;47.422;9.656;2023-04-24T05:08:44;9.30;99.90
4366;DHT22;2196;47.422;9.656;2023-04-24T05:11:11;9.30;99.90
4366;DHT22;2196;47.422;9.656;2023-04-24T05:13:38;9.20;99.90
4366;DHT22;2196;47.422;9.656;2023-04-24T05:16:05;9.30;99.90
4366;DHT22;2196;47.422;9.656;2023-04-24T05:18:33;9.30;99.90
4366;DHT22;2196;47.422;9.656;2023-04-24T05:21:00;9.30;99.90
4366;DHT22;2196;47.422;9.656;2023-04-24T05:23:28;9.40;99.90
4366;DHT22;2196;47.422;9.656;2023-04-24T05:25:55;9.40;99.90
4366;DHT22;2196;47.422;9.656;2023-04-24T05:28:22;9.50;99.90
4366;DHT22;2196;47.422;9.656;2023-04-24T05:30:49;9.50;99.90
4366;DHT22;2196;47.422;9.656;2023-04-24T05:33:16;9.50;99.90
4366;DHT22;2196;47.422;9.656;2023-04-24T05:35:42;9.50;99.90
4366;DHT22;2196;47.422;9.656;2023-04-24T05:38:12;9.50;99.90
4366;DHT22;2196;47.422;9.656;2023-04-24T05:40:40;9.50;99.90
4366;DHT22;2196;47.422;9.656;2023-04-24T05:43:07;9.40;99.90
4366;DHT22;2196;47.422;9.656;2023-04-24T05:45:34;9.40;99.90
4366;DHT22;2196;47.422;9.656;2023-04-24T05:48:02;9.40;99.90
4366;DHT22;2196;47.422;9.656;2023-04-24T05:50:29;9.40;99.90
4366;DHT22;2196;47.422;9.656;2023-04-24T05:52:56;9.60;99.90
4366;DHT22;2196;47.422;9.656;2023-04-24T05:55:24;9.60;99.90
4366;DHT22;2196;47.422;9.656;2023-04-24T05:57:52;9.60;99.90
4366;DHT22;2196;47.422;9.656;2023-04-24T06:00:20;9.60;99.90
4366;DHT22;2196;47.422;9.656;2023-04-24T06:02:47;9.60;99.90
4366;DHT22;2196;47.422;9.656;2023-04-24T06:05:14;9.70;99.90
4366;DHT22;2196;47.422;9.656;2023-04-24T06:07:41;9.70;99.90
4366;DHT22;2196;47.422;9.656;2023-04-24T06:10:09;9.70;99.90
4366;DHT22;2196;47.422;9.656;2023-04-24T06:12:36;9.80;99.90
4366;DHT22;2196;47.422;9.656;2023-04-24T06:15:06;9.80;99.90
4366;DHT22;2196;47.422;9.656;2023-04-24T06:17:33;9.80;99.90
4366;DHT22;2196;47.422;9.656;2023-04-24T06:20:00;9.80;99.90
4366;DHT22;2196;47.422;9.656;2023-04-24T06:22:30;9.70;99.90
4366;DHT22;2196;47.422;9.656;2023-04-24T06:24:57;9.70;99.90
4366;DHT22;2196;47.422;9.656;2023-04-24T06:27:24;9.70;99.90
4366;DHT22;2196;47.422;9.656;2023-04-24T06:29:51;9.70;99.90
4366;DHT22;2196;47.422;9.656;2023-04-24T06:32:24;9.70;99.90
4366;DHT22;2196;47.422;9.656;2023-04-24T06:34:52;9.80;99.90
4366;DHT22;2196;47.422;9.656;2023-04-24T06:37:23;9.70;99.90
4366;DHT22;2196;47.422;9.656;2023-04-24T06:39:50;9.70;99.90
4366;DHT22;2196;47.422;9.656;2023-04-24T06:42:17;9.60;99.90
4366;DHT22;2196;47.422;9.656;2023-04-24T06:44:47;9.80;99.90
4366;DHT22;2196;47.422;9.656;2023-04-24T06:47:14;9.80;99.90
4366;DHT22;2196;47.422;9.656;2023-04-24T06:49:43;9.70;99.90
4366;DHT22;2196;47.422;9.656;2023-04-24T06:52:09;9.60;99.90
4366;DHT22;2196;47.422;9.656;2023-04-24T06:54:36;9.60;99.90
4366;DHT22;2196;47.422;9.656;2023-04-24T06:57:03;9.50;99.90
4366;DHT22;2196;47.422;9.656;2023-04-24T06:59:30;9.60;99.90
4366;DHT22;2196;47.422;9.656;2023-04-24T07:01:57;9.60;99.90
4366;DHT22;2196;47.422;9.656;2023-04-24T07:04:24;9.60;99.90
4366;DHT22;2196;47.422;9.656;2023-04-24T07:06:53;9.60;99.90
4366;DHT22;2196;47.422;9.656;2023-04-24T07:09:21;9.70;99.90
4366;DHT22;2196;47.422;9.656;2023-04-24T07:11:49;9.80;99.90
4366;DHT22;2196;47.422;9.656;2023-04-24T07:14:17;9.90;99.90
4366;DHT22;2196;47.422;9.656;2023-04-24T07:16:44;10.00;99.90
4366;DHT22;2196;47.422;9.656;2023-04-24T07:19:11;10.10;99.90
4366;DHT22;2196;47.422;9.656;2023-04-24T07:21:38;10.20;99.90
4366;DHT22;2196;47.422;9.656;2023-04-24T07:24:07;10.30;99.90
4366;DHT22;2196;47.422;9.656;2023-04-24T07:26:37;10.50;99.90
4366;DHT22;2196;47.422;9.656;2023-04-24T07:29:04;10.80;99.90
4366;DHT22;2196;47.422;9.656;2023-04-24T07:31:31;10.80;99.90
4366;DHT22;2196;47.422;9.656;2023-04-24T07:33:58;10.90;99.90
4366;DHT22;2196;47.422;9.656;2023-04-24T07:36:25;11.00;99.90
4366;DHT22;2196;47.422;9.656;2023-04-24T07:38:54;11.10;99.90
4366;DHT22;2196;47.422;9.656;2023-04-24T07:41:22;11.10;99.90
4366;DHT22;2196;47.422;9.656;2023-04-24T07:43:49;11.10;99.90
4366;DHT22;2196;47.422;9.656;2023-04-24T07:46:16;11.20;99.90
4366;DHT22;2196;47.422;9.656;2023-04-24T07:48:43;11.20;99.90
4366;DHT22;2196;47.422;9.656;2023-04-24T07:51:11;11.20;99.90
4366;DHT22;2196;47.422;9.656;2023-04-24T07:53:39;11.70;99.90
4366;DHT22;2196;47.422;9.656;2023-04-24T07:56:06;13.30;99.90
4366;DHT22;2196;47.422;9.656;2023-04-24T07:58:34;14.40;99.90
4366;DHT22;2196;47.422;9.656;2023-04-24T08:01:02;15.60;99.90
4366;DHT22;2196;47.422;9.656;2023-04-24T08:03:29;17.20;99.90
4366;DHT22;2196;47.422;9.656;2023-04-24T08:05:55;18.20;99.90
4366;DHT22;2196;47.422;9.656;2023-04-24T08:08:23;17.90;99.90
4366;DHT22;2196;47.422;9.656;2023-04-24T08:10:50;17.30;99.90
4366;DHT22;2196;47.422;9.656;2023-04-24T08:13:17;17.20;99.90
4366;DHT22;2196;47.422;9.656;2023-04-24T08:15:45;17.40;99.90
4366;DHT22;2196;47.422;9.656;2023-04-24T08:18:12;18.90;99.90
4366;DHT22;2196;47.422;9.656;2023-04-24T08:20:41;20.00;99.90
4366;DHT22;2196;47.422;9.656;2023-04-24T08:23:08;20.10;99.90
4366;DHT22;2196;47.422;9.656;2023-04-24T08:25:35;19.40;99.90
4366;DHT22;2196;47.422;9.656;2023-04-24T08:28:02;17.90;99.90
4366;DHT22;2196;47.422;9.656;2023-04-24T08:30:29;16.60;99.90
4366;DHT22;2196;47.422;9.656;2023-04-24T08:32:58;16.10;99.90
4366;DHT22;2196;47.422;9.656;2023-04-24T08:35:25;15.00;99.90
4366;DHT22;2196;47.422;9.656;2023-04-24T08:37:52;14.40;99.90
4366;DHT22;2196;47.422;9.656;2023-04-24T08:40:27;14.10;99.90
4366;DHT22;2196;47.422;9.656;2023-04-24T08:42:55;13.70;99.90
4366;DHT22;2196;47.422;9.656;2023-04-24T08:45:23;13.30;99.90
4366;DHT22;2196;47.422;9.656;2023-04-24T08:47:50;13.00;99.90
4366;DHT22;2196;47.422;9.656;2023-04-24T08:50:20;12.70;99.90
4366;DHT22;2196;47.422;9.656;2023-04-24T08:52:48;12.50;99.90
4366;DHT22;2196;47.422;9.656;2023-04-24T08:55:16;12.40;99.90
4366;DHT22;2196;47.422;9.656;2023-04-24T08:57:44;12.40;99.90
4366;DHT22;2196;47.422;9.656;2023-04-24T09:00:14;12.30;99.90
4366;DHT22;2196;47.422;9.656;2023-04-24T09:02:42;12.20;99.90
4366;DHT22;2196;47.422;9.656;2023-04-24T09:05:10;11.90;99.90
4366;DHT22;2196;47.422;9.656;2023-04-24T09:07:39;11.60;99.90
4366;DHT22;2196;47.422;9.656;2023-04-24T09:10:08;11.20;99.90
4366;DHT22;2196;47.422;9.656;2023-04-24T09:12:35;11.00;99.90
4366;DHT22;2196;47.422;9.656;2023-04-24T09:15:03;10.80;99.90
4366;DHT22;2196;47.422;9.656;2023-04-24T09:17:31;10.90;99.90
4366;DHT22;2196;47.422;9.656;2023-04-24T09:19:58;11.30;99.90
4366;DHT22;2196;47.422;9.656;2023-04-24T09:22:29;12.90;99.90
4366;DHT22;2196;47.422;9.656;2023-04-24T09:25:02;14.00;99.90
4366;DHT22;2196;47.422;9.656;2023-04-24T09:27:30;15.00;99.90
4366;DHT22;2196;47.422;9.656;2023-04-24T09:29:58;15.50;99.90
4366;DHT22;2196;47.422;9.656;2023-04-24T09:32:25;15.40;99.90
4366;DHT22;2196;47.422;9.656;2023-04-24T09:35:08;15.60;99.90
4366;DHT22;2196;47.422;9.656;2023-04-24T09:37:36;15.30;99.90
4366;DHT22;2196;47.422;9.656;2023-04-24T09:40:15;15.10;99.90
4366;DHT22;2196;47.422;9.656;2023-04-24T09:42:46;14.40;99.90
4366;DHT22;2196;47.422;9.656;2023-04-24T09:45:13;14.10;99.90
4366;DHT22;2196;47.422;9.656;2023-04-24T09:47:40;13.70;99.90
4366;DHT22;2196;47.422;9.656;2023-04-24T09:50:15;12.80;99.90
4366;DHT22;2196;47.422;9.656;2023-04-24T09:52:43;11.90;99.90
4366;DHT22;2196;47.422;9.656;2023-04-24T09:55:13;11.40;99.90
4366;DHT22;2196;47.422;9.656;2023-04-24T09:57:49;11.20;99.90
4366;DHT22;2196;47.422;9.656;2023-04-24T10:00:24;10.90;99.90
4366;DHT22;2196;47.422;9.656;2023-04-24T10:02:59;10.80;99.90
4366;DHT22;2196;47.422;9.656;2023-04-24T10:05:28;10.70;99.90
4366;DHT22;2196;47.422;9.656;2023-04-24T10:08:02;10.80;99.90
4366;DHT22;2196;47.422;9.656;2023-04-24T10:10:32;11.10;99.90
4366;DHT22;2196;47.422;9.656;2023-04-24T10:12:59;11.20;99.90
4366;DHT22;2196;47.422;9.656;2023-04-24T10:15:27;11.20;99.90
4366;DHT22;2196;47.422;9.656;2023-04-24T10:17:54;11.50;99.90
4366;DHT22;2196;47.422;9.656;2023-04-24T10:20:23;12.10;99.90
4366;DHT22;2196;47.422;9.656;2023-04-24T10:22:51;12.50;99.90
4366;DHT22;2196;47.422;9.656;2023-04-24T10:25:20;12.90;99.90
4366;DHT22;2196;47.422;9.656;2023-04-24T10:27:50;14.30;99.90
4366;DHT22;2196;47.422;9.656;2023-04-24T10:30:18;15.70;99.90
4366;DHT22;2196;47.422;9.656;2023-04-24T10:32:45;16.40;99.90
4366;DHT22;2196;47.422;9.656;2023-04-24T10:35:14;16.50;99.90
4366;DHT22;2196;47.422;9.656;2023-04-24T10:37:43;16.30;99.90
4366;DHT22;2196;47.422;9.656;2023-04-24T10:40:12;15.70;99.90
4366;DHT22;2196;47.422;9.656;2023-04-24T10:42:42;15.20;99.90
4366;DHT22;2196;47.422;9.656;2023-04-24T10:45:18;14.30;99.90
4366;DHT22;2196;47.422;9.656;2023-04-24T10:47:56;13.50;99.90
4366;DHT22;2196;47.422;9.656;2023-04-24T10:50:24;13.10;99.90
4366;DHT22;2196;47.422;9.656;2023-04-24T10:52:51;12.80;99.90
4366;DHT22;2196;47.422;9.656;2023-04-24T10:55:41;12.40;99.90
4366;DHT22;2196;47.422;9.656;2023-04-24T10:58:09;12.20;99.90
4366;DHT22;2196;47.422;9.656;2023-04-24T11:00:38;12.10;99.90
4366;DHT22;2196;47.422;9.656;2023-04-24T11:03:06;12.00;99.90
4366;DHT22;2196;47.422;9.656;2023-04-24T11:05:55;12.10;99.90
4366;DHT22;2196;47.422;9.656;2023-04-24T11:08:27;12.30;99.90
4366;DHT22;2196;47.422;9.656;2023-04-24T11:10:57;12.70;99.90
4366;DHT22;2196;47.422;9.656;2023-04-24T11:13:25;13.10;99.90
4366;DHT22;2196;47.422;9.656;2023-04-24T11:16:16;13.50;99.90
4366;DHT22;2196;47.422;9.656;2023-04-24T11:18:51;14.00;99.90
4366;DHT22;2196;47.422;9.656;2023-04-24T11:21:20;14.20;99.90
4366;DHT22;2196;47.422;9.656;2023-04-24T11:23:47;14.40;99.90
4366;DHT22;2196;47.422;9.656;2023-04-24T11:26:18;14.30;99.90
4366;DHT22;2196;47.422;9.656;2023-04-24T11:28:46;14.10;99.90
4366;DHT22;2196;47.422;9.656;2023-04-24T11:31:40;14.10;99.90
4366;DHT22;2196;47.422;9.656;2023-04-24T11:34:08;14.10;99.90
4366;DHT22;2196;47.422;9.656;2023-04-24T11:36:36;14.10;99.90
4366;DHT22;2196;47.422;9.656;2023-04-24T11:39:03;14.20;99.90
4366;DHT22;2196;47.422;9.656;2023-04-24T11:41:31;14.30;99.90
4366;DHT22;2196;47.422;9.656;2023-04-24T11:43:58;14.50;99.90
4366;DHT22;2196;47.422;9.656;2023-04-24T11:46:28;14.40;99.90
4366;DHT22;2196;47.422;9.656;2023-04-24T11:48:57;14.40;99.90
4366;DHT22;2196;47.422;9.656;2023-04-24T11:51:24;14.10;99.90
4366;DHT22;2196;47.422;9.656;2023-04-24T11:53:52;14.10;99.90
4366;DHT22;2196;47.422;9.656;2023-04-24T11:56:20;14.20;99.90
4366;DHT22;2196;47.422;9.656;2023-04-24T11:58:48;14.20;99.90
4366;DHT22;2196;47.422;9.656;2023-04-24T12:01:15;14.00;99.90
4366;DHT22;2196;47.422;9.656;2023-04-24T12:03:42;13.90;99.90
4366;DHT22;2196;47.422;9.656;2023-04-24T12:06:15;13.90;99.90
4366;DHT22;2196;47.422;9.656;2023-04-24T12:08:41;13.50;99.90
4366;DHT22;2196;47.422;9.656;2023-04-24T12:11:15;13.50;99.90
4366;DHT22;2196;47.422;9.656;2023-04-24T12:13:42;13.40;99.90
4366;DHT22;2196;47.422;9.656;2023-04-24T12:16:09;13.30;99.90
4366;DHT22;2196;47.422;9.656;2023-04-24T12:18:41;13.20;99.90
4366;DHT22;2196;47.422;9.656;2023-04-24T12:21:17;13.50;99.90
4366;DHT22;2196;47.422;9.656;2023-04-24T12:23:44;13.60;99.90
4366;DHT22;2196;47.422;9.656;2023-04-24T12:26:12;13.90;99.90
4366;DHT22;2196;47.422;9.656;2023-04-24T12:28:39;14.10;99.90
4366;DHT22;2196;47.422;9.656;2023-04-24T12:31:07;14.40;99.90
4366;DHT22;2196;47.422;9.656;2023-04-24T12:33:35;14.70;99.90
4366;DHT22;2196;47.422;9.656;2023-04-24T12:36:02;14.80;99.90
4366;DHT22;2196;47.422;9.656;2023-04-24T12:38:32;14.90;99.90
4366;DHT22;2196;47.422;9.656;2023-04-24T12:41:07;14.80;99.90
4366;DHT22;2196;47.422;9.656;2023-04-24T12:43:35;14.50;99.90
4366;DHT22;2196;47.422;9.656;2023-04-24T12:46:03;14.40;99.90
4366;DHT22;2196;47.422;9.656;2023-04-24T12:48:30;14.20;99.90
4366;DHT22;2196;47.422;9.656;2023-04-24T12:50:57;14.10;99.90
4366;DHT22;2196;47.422;9.656;2023-04-24T12:53:27;14.00;99.90
4366;DHT22;2196;47.422;9.656;2023-04-24T12:55:57;13.60;99.90
4366;DHT22;2196;47.422;9.656;2023-04-24T12:58:24;13.30;99.90
4366;DHT22;2196;47.422;9.656;2023-04-24T13:00:51;13.10;99.90
4366;DHT22;2196;47.422;9.656;2023-04-24T13:03:18;13.00;99.90
4366;DHT22;2196;47.422;9.656;2023-04-24T13:05:45;13.00;99.90
4366;DHT22;2196;47.422;9.656;2023-04-24T13:08:12;13.00;99.90
4366;DHT22;2196;47.422;9.656;2023-04-24T13:10:39;12.90;99.90
4366;DHT22;2196;47.422;9.656;2023-04-24T13:13:08;12.90;99.90
4366;DHT22;2196;47.422;9.656;2023-04-24T13:15:35;12.70;99.90
4366;DHT22;2196;47.422;9.656;2023-04-24T13:18:02;12.60;99.90
4366;DHT22;2196;47.422;9.656;2023-04-24T13:20:29;12.80;99.90
4366;DHT22;2196;47.422;9.656;2023-04-24T13:22:56;13.10;99.90
4366;DHT22;2196;47.422;9.656;2023-04-24T13:25:23;13.50;99.90
4366;DHT22;2196;47.422;9.656;2023-04-24T13:27:50;13.70;99.90
4366;DHT22;2196;47.422;9.656;2023-04-24T13:30:19;13.70;99.90
4366;DHT22;2196;47.422;9.656;2023-04-24T13:32:46;13.70;99.90
4366;DHT22;2196;47.422;9.656;2023-04-24T13:35:13;13.80;99.90
4366;DHT22;2196;47.422;9.656;2023-04-24T13:37:40;13.90;99.90
4366;DHT22;2196;47.422;9.656;2023-04-24T13:40:08;13.70;99.90
4366;DHT22;2196;47.422;9.656;2023-04-24T13:42:35;13.60;99.90
4366;DHT22;2196;47.422;9.656;2023-04-24T13:45:02;13.60;99.90
4366;DHT22;2196;47.422;9.656;2023-04-24T13:47:31;13.80;99.90
4366;DHT22;2196;47.422;9.656;2023-04-24T13:49:58;14.10;99.90
4366;DHT22;2196;47.422;9.656;2023-04-24T13:52:25;14.00;99.90
4366;DHT22;2196;47.422;9.656;2023-04-24T13:54:52;14.00;99.90
4366;DHT22;2196;47.422;9.656;2023-04-24T13:57:19;13.50;99.90
4366;DHT22;2196;47.422;9.656;2023-04-24T13:59:49;13.30;99.90
4366;DHT22;2196;47.422;9.656;2023-04-24T14:02:16;13.20;99.90
4366;DHT22;2196;47.422;9.656;2023-04-24T14:04:48;13.00;99.90
4366;DHT22;2196;47.422;9.656;2023-04-24T14:07:15;12.90;99.90
4366;DHT22;2196;47.422;9.656;2023-04-24T14:09:41;12.80;99.90
4366;DHT22;2196;47.422;9.656;2023-04-24T14:12:08;12.90;99.90
4366;DHT22;2196;47.422;9.656;2023-04-24T14:14:35;13.10;99.90
4366;DHT22;2196;47.422;9.656;2023-04-24T14:17:02;13.30;99.90
4366;DHT22;2196;47.422;9.656;2023-04-24T14:19:29;13.30;99.90
4366;DHT22;2196;47.422;9.656;2023-04-24T14:21:57;13.40;99.90
4366;DHT22;2196;47.422;9.656;2023-04-24T14:24:24;13.60;99.90
4366;DHT22;2196;47.422;9.656;2023-04-24T14:26:51;13.60;99.90
4366;DHT22;2196;47.422;9.656;2023-04-24T14:29:18;13.60;99.90
4366;DHT22;2196;47.422;9.656;2023-04-24T14:31:46;13.60;99.90
4366;DHT22;2196;47.422;9.656;2023-04-24T14:34:13;13.50;99.90
4366;DHT22;2196;47.422;9.656;2023-04-24T14:36:40;13.60;99.90
4366;DHT22;2196;47.422;9.656;2023-04-24T14:39:09;13.60;99.90
4366;DHT22;2196;47.422;9.656;2023-04-24T14:41:36;13.70;99.90
4366;DHT22;2196;47.422;9.656;2023-04-24T14:44:05;13.60;99.90
4366;DHT22;2196;47.422;9.656;2023-04-24T14:46:32;13.40;99.90
4366;DHT22;2196;47.422;9.656;2023-04-24T14:48:59;13.40;99.90
4366;DHT22;2196;47.422;9.656;2023-04-24T14:51:26;13.30;99.90
4366;DHT22;2196;47.422;9.656;2023-04-24T14:53:53;13.20;99.90
4366;DHT22;2196;47.422;9.656;2023-04-24T14:56:21;13.10;99.90
4366;DHT22;2196;47.422;9.656;2023-04-24T14:58:48;13.00;99.90
4366;DHT22;2196;47.422;9.656;2023-04-24T15:01:15;13.00;99.90
4366;DHT22;2196;47.422;9.656;2023-04-24T15:03:43;13.20;99.90
4366;DHT22;2196;47.422;9.656;2023-04-24T15:06:10;13.50;99.90
4366;DHT22;2196;47.422;9.656;2023-04-24T15:08:37;13.70;99.90
4366;DHT22;2196;47.422;9.656;2023-04-24T15:11:04;13.70;99.90
4366;DHT22;2196;47.422;9.656;2023-04-24T15:13:32;13.60;99.90
4366;DHT22;2196;47.422;9.656;2023-04-24T15:15:59;13.50;99.90
4366;DHT22;2196;47.422;9.656;2023-04-24T15:18:27;13.40;99.90
4366;DHT22;2196;47.422;9.656;2023-04-24T15:20:55;13.20;99.90
4366;DHT22;2196;47.422;9.656;2023-04-24T15:23:22;13.20;99.90
4366;DHT22;2196;47.422;9.656;2023-04-24T15:25:48;13.00;99.90
4366;DHT22;2196;47.422;9.656;2023-04-24T15:28:15;12.90;99.90
4366;DHT22;2196;47.422;9.656;2023-04-24T15:30:44;12.70;99.90
4366;DHT22;2196;47.422;9.656;2023-04-24T15:33:11;12.60;99.90
4366;DHT22;2196;47.422;9.656;2023-04-24T15:35:38;12.60;99.90
4366;DHT22;2196;47.422;9.656;2023-04-24T15:38:05;12.50;99.90
4366;DHT22;2196;47.422;9.656;2023-04-24T15:40:32;12.40;99.90
4366;DHT22;2196;47.422;9.656;2023-04-24T15:42:59;12.30;99.90
4366;DHT22;2196;47.422;9.656;2023-04-24T15:45:26;12.20;99.90
4366;DHT22;2196;47.422;9.656;2023-04-24T15:47:55;12.20;99.90
4366;DHT22;2196;47.422;9.656;2023-04-24T15:50:22;12.10;99.90
4366;DHT22;2196;47.422;9.656;2023-04-24T15:52:49;11.90;99.90
4366;DHT22;2196;47.422;9.656;2023-04-24T15:55:17;11.80;99.90
4366;DHT22;2196;47.422;9.656;2023-04-24T15:57:44;11.80;99.90
4366;DHT22;2196;47.422;9.656;2023-04-24T16:00:11;11.70;99.90
4366;DHT22;2196;47.422;9.656;2023-04-24T16:02:39;11.60;99.90
4366;DHT22;2196;47.422;9.656;2023-04-24T16:05:07;11.50;99.90
4366;DHT22;2196;47.422;9.656;2023-04-24T16:07:37;11.30;99.90
4366;DHT22;2196;47.422;9.656;2023-04-24T16:10:05;11.00;99.90
4366;DHT22;2196;47.422;9.656;2023-04-24T16:12:32;10.80;99.90